createdAt,value
2022-09-01T09:21:16.665Z,24.7
2022-09-01T09:23:25.871Z,24.6
2022-09-01T09:24:40.899Z,24.6
2022-09-01T09:25:44.038Z,24.6
2022-09-01T09:27:50.338Z,24.6
2022-09-01T09:29:04.227Z,24.6
2022-09-01T09:30:12.416Z,24.6
2022-09-01T09:31:14.984Z,24.6
2022-09-01T09:32:59.729Z,24.6
2022-09-01T09:34:58.494Z,24.6
2022-09-01T09:36:01.637Z,24.7
2022-09-01T09:37:06.533Z,24.7
2022-09-01T09:38:10.007Z,24.7
2022-09-01T09:39:12.807Z,24.7
2022-09-01T09:40:18.448Z,24.8
2022-09-01T09:41:28.308Z,24.8
2022-09-01T09:42:37.292Z,24.7
2022-09-01T09:43:47.488Z,24.8
2022-09-01T09:44:51.051Z,24.8
2022-09-01T09:45:53.942Z,24.7
2022-09-01T09:46:57.189Z,24.7
2022-09-01T09:48:00.274Z,24.7
2022-09-01T09:49:03.136Z,24.7
2022-09-01T09:50:06.390Z,24.8
2022-09-01T13:09:29.254Z,26.9
2022-09-01T13:10:33.608Z,26.8
2022-09-01T13:12:08.102Z,26
2022-09-01T13:13:11.806Z,25.5
2022-09-01T13:14:15.111Z,25
2022-09-01T13:15:17.767Z,24.7
2022-09-01T13:16:20.643Z,24.5
2022-09-01T13:17:24.781Z,24.4
2022-09-01T13:18:27.640Z,24.3
2022-09-01T13:19:31.437Z,24.3
2022-09-01T13:20:34.304Z,24.3
2022-09-01T13:21:37.229Z,24.2
2022-09-01T14:30:38.017Z,24.3
2022-09-01T14:31:40.595Z,29.4
2022-09-01T14:32:43.380Z,29.4
2022-09-01T14:33:46.870Z,29.1
2022-09-01T14:34:49.735Z,28.9
2022-09-01T14:35:52.604Z,29.1
2022-09-01T14:36:55.465Z,29.2
2022-09-01T14:37:58.603Z,29.4
2022-09-01T14:39:01.197Z,29.5
2022-09-01T14:40:05.077Z,29.5
2022-09-01T14:41:08.499Z,29.4
2022-09-01T14:42:11.367Z,29.4
2022-09-01T14:44:17.257Z,29.2
2022-09-01T14:45:20.065Z,29.2
2022-09-01T14:46:23.455Z,29.1
2022-09-01T14:47:28.349Z,29.2
2022-09-01T14:48:34.820Z,29.5
2022-09-01T14:49:37.057Z,29.8
2022-09-01T14:50:40.192Z,30.1
2022-09-01T14:52:13.487Z,30.3
2022-09-01T14:53:17.162Z,30
2022-09-01T14:54:19.982Z,29.8
2022-09-01T14:55:22.910Z,29.7
2022-09-01T14:56:26.256Z,29.7
2022-09-01T14:57:39.052Z,30
2022-09-01T14:59:45.810Z,30
2022-09-01T15:00:48.873Z,29.8
2022-09-01T15:01:52.052Z,29.4
2022-09-01T15:02:55.109Z,28.9
2022-09-01T15:03:58.562Z,28.3
2022-09-01T15:05:01.500Z,27.9
2022-09-01T15:06:05.193Z,27.9
2022-09-01T15:07:08.056Z,28.2
2022-09-01T15:08:19.173Z,28.2
2022-09-01T15:09:24.104Z,28.5
2022-09-01T15:10:27.054Z,28.9
2022-09-01T15:11:29.945Z,28.9
2022-09-01T15:12:47.291Z,29.1
2022-09-01T15:13:50.155Z,29.3
2022-09-01T15:14:53.019Z,29.5
2022-09-01T15:15:56.211Z,29.6
2022-09-01T15:16:59.526Z,29.7
2022-09-01T15:18:02.188Z,29.9
2022-09-01T15:19:05.630Z,30
2022-09-01T15:20:08.147Z,30.4
2022-09-01T15:21:11.009Z,30.7
2022-09-01T15:22:13.585Z,31
2022-09-01T15:23:15.988Z,31.2
2022-09-01T15:24:19.155Z,31.4
2022-09-01T15:25:21.475Z,31.5
2022-09-01T15:26:24.920Z,32
2022-09-01T15:27:27.616Z,32.3
2022-09-01T15:28:31.027Z,32.4
2022-09-01T15:29:33.894Z,32.6
2022-09-01T15:30:36.837Z,32.7
2022-09-01T15:31:41.473Z,32.8
2022-09-01T15:32:44.210Z,32.8
2022-09-01T16:03:38.344Z,32.5
2022-09-01T16:04:40.935Z,32.4
2022-09-01T16:05:43.993Z,32.4
2022-09-01T16:20:11.426Z,32.2
2022-09-01T16:21:14.203Z,30.1
2022-09-01T16:22:17.328Z,29.3
2022-09-01T16:23:20.102Z,28.6
2022-09-01T16:24:23.145Z,27.6
2022-09-01T16:25:26.508Z,26.9
2022-09-01T16:26:29.360Z,26.5
2022-09-01T16:27:32.291Z,26.2
2022-09-01T16:28:35.737Z,26.1
2022-09-01T16:29:45.671Z,25.5
2022-09-01T16:30:48.267Z,25.3
2022-09-01T16:31:51.258Z,25.1
2022-09-01T16:32:54.843Z,25.1
2022-09-01T16:34:19.672Z,25.2
